Time;durP1;ratioP1;P1;durP2;ratioP2;P2;SDS_P1;SDS_P2;PMS_P1;PMS_P2;Temp;Humidity;BMP_temperature;BMP_pressure;BME280_temperature;BME280_humidity;BME280_pressure;Samples;Min_cycle;Max_cycle;Signal;HPM_P1;HPM_P2
2021/03/01 00:01:49;;;;;;;;;;;;;;;3.67;88.41;103686.44;5018286;28;850;-84
2021/03/01 00:04:14;;;;;;;;;;;;;;;3.68;88.07;103683.47;5018203;28;817;-84
2021/03/01 00:06:40;;;;;;;;;;;;;;;3.70;88.23;103673.19;5016546;28;1249;-84
2021/03/01 00:09:06;;;;;;;;;;;;;;;3.70;88.03;103678.63;5017737;28;1267;-84
2021/03/01 00:11:32;;;;;;;;;;;;;;;3.69;88.08;103673.41;5015970;28;878;-84
2021/03/01 00:13:58;;;;;;;;;;;;;;;3.69;87.56;103676.13;5045328;28;810;-84
2021/03/01 00:16:23;;;;;;;;;;;;;;;3.70;87.50;103681.38;5020940;28;973;-84
2021/03/01 00:18:48;;;;;;;;;;;;;;;3.72;87.62;103681.13;5020473;28;1341;-84
2021/03/01 00:21:14;;;;;;;;;;;;;;;3.74;87.86;103676.28;5021587;28;902;-85
2021/03/01 00:23:39;;;;;;;;;;;;;;;3.77;88.15;103675.81;5021721;28;882;-85
2021/03/01 00:26:04;;;;;;;;;;;;;;;3.76;87.83;103668.69;5022176;28;860;-85
2021/03/01 00:28:30;;;;;;;;;;;;;;;3.78;87.92;103673.94;5021285;28;1270;-85
2021/03/01 00:30:55;;;;;;;;;;;;;;;3.74;87.33;103674.38;5019622;28;879;-85
2021/03/01 00:33:20;;;;;;;;;;;;;;;3.74;87.68;103674.38;5019306;28;1973;-85
2021/03/01 00:35:46;;;;;;;;;;;;;;;3.74;88.34;103674.38;5018443;28;874;-85
2021/03/01 00:38:11;;;;;;;;;;;;;;;3.73;88.54;103669.13;5018435;28;1377;-84
2021/03/01 00:40:36;;;;;;;;;;;;;;;3.72;88.26;103667.44;5020797;28;938;-84
2021/03/01 00:43:02;;;;;;;;;;;;;;;3.74;88.44;103670.81;5021000;28;790;-85
2021/03/01 00:45:27;;;;;;;;;;;;;;;3.67;88.77;103665.44;5020686;28;851;-85
2021/03/01 00:47:52;;;;;;;;;;;;;;;3.67;88.88;103661.84;5019610;28;1336;-84
2021/03/01 00:50:19;;;;;;;;;;;;;;;3.70;88.25;103659.50;5020636;28;865;-85
2021/03/01 00:52:44;;;;;;;;;;;;;;;3.72;88.22;103662.00;5021048;28;1894;-85
2021/03/01 00:55:10;;;;;;;;;;;;;;;3.74;88.21;103654.41;5019893;28;1509;-85
2021/03/01 00:57:35;;;;;;;;;;;;;;;3.69;88.79;103649.63;5021304;28;992;-84
2021/03/01 01:00:01;;;;;;;;;;;;;;;3.70;88.78;103654.03;5020173;28;1372;-84
2021/03/01 01:02:26;;;;;;;;;;;;;;;3.71;88.76;103658.44;5018592;28;1400;-84
2021/03/01 01:04:52;;;;;;;;;;;;;;;3.75;88.40;103656.94;5019962;28;868;-84
2021/03/01 01:07:17;;;;;;;;;;;;;;;3.75;88.18;103656.94;5020087;28;853;-85
2021/03/01 01:09:42;;;;;;;;;;;;;;;3.77;88.49;103656.66;5019707;28;1283;-84
2021/03/01 01:12:08;;;;;;;;;;;;;;;3.74;88.33;103655.25;5018508;28;1906;-85
2021/03/01 01:14:33;;;;;;;;;;;;;;;3.73;88.78;103658.19;5019435;28;1202;-85
2021/03/01 01:16:58;;;;;;;;;;;;;;;3.67;88.36;103651.75;5018952;28;1303;-85
2021/03/01 01:19:24;;;;;;;;;;;;;;;3.63;88.13;103650.53;5019978;28;1256;-85
2021/03/01 01:21:50;;;;;;;;;;;;;;;3.61;89.13;103657.31;5020503;28;898;-84
2021/03/01 01:24:15;;;;;;;;;;;;;;;3.64;88.79;103651.38;5021612;28;1047;-85
2021/03/01 01:26:40;;;;;;;;;;;;;;;3.66;88.33;103649.25;5021388;28;977;-85
2021/03/01 01:29:05;;;;;;;;;;;;;;;3.58;89.06;103648.50;5020396;28;1478;-85
2021/03/01 01:31:31;;;;;;;;;;;;;;;3.55;88.92;103640.75;5020179;28;953;-84
2021/03/01 01:33:56;;;;;;;;;;;;;;;3.52;88.73;103643.94;5020702;28;1949;-85
2021/03/01 01:36:22;;;;;;;;;;;;;;;3.51;88.46;103636.81;5020443;28;1044;-84
2021/03/01 01:38:47;;;;;;;;;;;;;;;3.51;88.96;103641.41;5021025;28;1346;-84
2021/03/01 01:41:13;;;;;;;;;;;;;;;3.49;89.15;103638.91;5020892;28;1027;-85
2021/03/01 01:43:38;;;;;;;;;;;;;;;3.48;89.23;103631.81;5020723;28;1059;-85
2021/03/01 01:46:03;;;;;;;;;;;;;;;3.48;88.98;103628.22;5019300;28;985;-85
2021/03/01 01:48:29;;;;;;;;;;;;;;;3.43;89.76;103631.66;5021045;28;1380;-85
2021/03/01 01:50:54;;;;;;;;;;;;;;;3.42;89.54;103631.88;5035634;28;1261;-85
2021/03/01 01:53:20;;;;;;;;;;;;;;;3.39;89.07;103633.13;5019921;28;1954;-85
2021/03/01 01:55:45;;;;;;;;;;;;;;;3.37;89.28;103630.66;5020764;28;885;-85
2021/03/01 01:58:11;;;;;;;;;;;;;;;3.35;89.80;103627.31;5021018;28;1262;-85
2021/03/01 02:00:45;;;;;;;;;;;;;;;3.35;90.00;103630.03;5020528;28;984;-85
2021/03/01 02:03:33;;;;;;;;;;;;;;;3.42;89.58;103623.66;5020757;28;801;-85
2021/03/01 02:06:08;;;;;;;;;;;;;;;3.44;90.02;103624.28;5018778;28;838;-84
2021/03/01 02:09:07;;;;;;;;;;;;;;;3.46;89.47;103616.69;5018990;28;1279;-84
2021/03/01 02:11:51;;;;;;;;;;;;;;;3.48;89.66;103620.00;5018118;28;997;-84
2021/03/01 02:14:24;;;;;;;;;;;;;;;3.46;90.04;103612.06;5018280;28;981;-84
2021/03/01 02:16:49;;;;;;;;;;;;;;;3.39;89.49;103612.16;5019256;28;1036;-84
2021/03/01 02:19:17;;;;;;;;;;;;;;;3.37;89.91;103616.16;5018207;28;1298;-84
2021/03/01 02:21:45;;;;;;;;;;;;;;;3.39;89.40;103611.28;5018163;28;868;-84
2021/03/01 02:24:44;;;;;;;;;;;;;;;3.37;89.71;103605.22;5030800;28;822;-84
2021/03/01 02:27:21;;;;;;;;;;;;;;;3.36;90.07;103612.59;5026006;28;1073;-85
2021/03/01 02:29:47;;;;;;;;;;;;;;;3.38;89.61;103617.84;5021237;28;1293;-84
2021/03/01 02:32:14;;;;;;;;;;;;;;;3.33;89.55;103610.31;5020383;28;1944;-85
2021/03/01 02:34:41;;;;;;;;;;;;;;;3.33;90.28;103606.75;5020930;28;1012;-84
2021/03/01 02:37:11;;;;;;;;;;;;;;;3.35;90.55;103601.88;5019637;28;980;-85
2021/03/01 02:39:42;;;;;;;;;;;;;;;3.38;90.17;103607.72;5018734;28;1373;-84
2021/03/01 02:42:10;;;;;;;;;;;;;;;3.37;89.45;103614.28;5019682;28;794;-85
2021/03/01 02:44:38;;;;;;;;;;;;;;;3.30;90.18;103609.94;5020145;28;884;-85
2021/03/01 02:47:03;;;;;;;;;;;;;;;3.31;90.17;103614.34;5019444;28;988;-85
2021/03/01 02:49:29;;;;;;;;;;;;;;;3.23;89.72;103604.53;5019657;28;1286;-85
2021/03/01 02:51:56;;;;;;;;;;;;;;;3.24;90.45;103611.69;5035033;28;1882;-85
2021/03/01 02:54:24;;;;;;;;;;;;;;;3.26;90.27;103606.00;5019898;28;896;-84
2021/03/01 02:56:51;;;;;;;;;;;;;;;3.26;90.33;103611.47;5020555;28;1043;-85
2021/03/01 02:59:20;;;;;;;;;;;;;;;3.26;90.49;103611.47;5023510;28;1349;-85
2021/03/01 03:01:47;;;;;;;;;;;;;;;3.25;90.51;103609.78;5023099;28;858;-84
2021/03/01 03:04:15;;;;;;;;;;;;;;;3.23;90.48;103610.00;5023331;28;1024;-84
2021/03/01 03:06:40;;;;;;;;;;;;;;;3.18;90.62;103613.44;5023033;28;988;-84
2021/03/01 03:09:10;;;;;;;;;;;;;;;3.19;89.99;103609.63;5022925;28;1313;-84
2021/03/01 03:11:40;;;;;;;;;;;;;;;3.16;89.69;103611.97;5024269;28;846;-84
2021/03/01 03:14:15;;;;;;;;;;;;;;;3.18;90.30;103610.69;5024478;28;787;-85
2021/03/01 03:16:41;;;;;;;;;;;;;;;3.15;89.95;103610.28;5022501;28;1004;-84
2021/03/01 03:19:08;;;;;;;;;;;;;;;3.19;90.34;103612.34;5022432;28;1357;-84
2021/03/01 03:21:33;;;;;;;;;;;;;;;3.17;90.34;103608.19;5022407;28;837;-84
2021/03/01 03:23:59;;;;;;;;;;;;;;;3.15;90.39;103613.88;5022401;28;826;-84
2021/03/01 03:26:24;;;;;;;;;;;;;;;3.16;90.24;103620.16;5022065;28;945;-84
2021/03/01 03:28:49;;;;;;;;;;;;;;;3.11;90.67;103618.09;5022147;28;1255;-84
2021/03/01 03:31:15;;;;;;;;;;;;;;;3.07;90.10;103624.25;5022218;28;1021;-84
2021/03/01 03:33:42;;;;;;;;;;;;;;;3.07;90.18;103627.81;5022770;28;1871;-84
2021/03/01 03:36:09;;;;;;;;;;;;;;;3.10;89.95;103621.91;5022801;28;869;-84
2021/03/01 03:38:43;;;;;;;;;;;;;;;3.08;90.31;103626.75;5021615;28;1333;-84
2021/03/01 03:41:12;;;;;;;;;;;;;;;3.08;90.91;103626.75;5021628;28;740;-84
2021/03/01 03:43:39;;;;;;;;;;;;;;;3.06;90.82;103622.56;5021721;28;902;-84
2021/03/01 03:46:07;;;;;;;;;;;;;;;3.05;90.49;103627.19;5020050;28;1348;-84
2021/03/01 03:48:33;;;;;;;;;;;;;;;3.03;90.56;103618.41;5020735;28;1320;-84
2021/03/01 03:51:02;;;;;;;;;;;;;;;3.05;90.71;103624.47;5021699;28;973;-85
2021/03/01 03:53:31;;;;;;;;;;;;;;;3.03;90.63;103626.59;5022204;28;1969;-85
2021/03/01 03:56:00;;;;;;;;;;;;;;;3.05;90.58;103620.91;5022741;28;1923;-85
2021/03/01 03:58:30;;;;;;;;;;;;;;;3.07;90.87;103622.34;5037933;28;1291;-85
2021/03/01 04:00:59;;;;;;;;;;;;;;;2.97;91.52;103622.84;5022158;28;798;-85
2021/03/01 04:03:26;;;;;;;;;;;;;;;2.97;91.36;103625.56;5022231;28;905;-85
2021/03/01 04:05:56;;;;;;;;;;;;;;;2.97;91.41;103624.75;5021286;28;834;-84
2021/03/01 04:08:22;;;;;;;;;;;;;;;2.98;91.25;103624.53;5020524;28;1337;-85
2021/03/01 04:10:52;;;;;;;;;;;;;;;2.95;90.64;103637.78;5022356;28;992;-85
2021/03/01 04:13:19;;;;;;;;;;;;;;;2.89;90.86;103633.22;5021974;28;1907;-85
2021/03/01 04:15:47;;;;;;;;;;;;;;;2.83;90.60;103633.06;5021757;28;885;-84
2021/03/01 04:18:22;;;;;;;;;;;;;;;2.83;91.14;103632.22;5021849;28;1283;-85
2021/03/01 04:20:49;;;;;;;;;;;;;;;2.80;90.64;103625.34;5022382;28;1072;-85
2021/03/01 04:23:17;;;;;;;;;;;;;;;2.75;90.77;103627.91;5023277;28;929;-85
2021/03/01 04:25:46;;;;;;;;;;;;;;;2.72;90.78;103632.97;5024515;28;889;-85
2021/03/01 04:28:13;;;;;;;;;;;;;;;2.65;91.51;103630.28;5023992;28;1362;-85
2021/03/01 04:30:39;;;;;;;;;;;;;;;2.63;91.50;103635.13;5022693;28;1352;-85
2021/03/01 04:33:06;;;;;;;;;;;;;;;2.61;91.12;103635.34;5023282;28;1943;-85
2021/03/01 04:35:33;;;;;;;;;;;;;;;2.56;90.83;103634.31;5023277;28;1007;-84
2021/03/01 04:37:59;;;;;;;;;;;;;;;2.48;90.96;103632.72;5021949;28;1396;-84
2021/03/01 04:40:24;;;;;;;;;;;;;;;2.44;91.13;103632.31;5020409;28;948;-85
2021/03/01 04:42:51;;;;;;;;;;;;;;;2.38;90.55;103635.09;5019340;28;1494;-84
2021/03/01 04:45:18;;;;;;;;;;;;;;;2.35;90.82;103630.88;5018945;28;1312;-84
2021/03/01 04:47:47;;;;;;;;;;;;;;;2.32;90.61;103631.34;5018539;28;1255;-84
2021/03/01 04:50:14;;;;;;;;;;;;;;;2.33;91.04;103627.56;5019149;28;866;-84
2021/03/01 04:52:40;;;;;;;;;;;;;;;2.29;90.46;103622.78;5018891;28;1988;-83
2021/03/01 04:55:07;;;;;;;;;;;;;;;2.20;90.79;103627.66;5019009;28;896;-84
2021/03/01 04:57:33;;;;;;;;;;;;;;;2.12;91.35;103619.72;5019185;28;922;-84
2021/03/01 05:00:00;;;;;;;;;;;;;;;2.11;91.24;103615.31;5019148;28;1256;-83
2021/03/01 05:02:26;;;;;;;;;;;;;;;2.05;91.40;103619.75;5033574;28;1067;-84
2021/03/01 05:04:52;;;;;;;;;;;;;;;2.05;91.14;103608.84;5019209;28;1252;-85
2021/03/01 05:07:19;;;;;;;;;;;;;;;2.00;90.80;103614.13;5020636;28;1308;-85
2021/03/01 05:09:46;;;;;;;;;;;;;;;1.91;91.04;103610.81;5020188;28;1364;-84
2021/03/01 05:12:11;;;;;;;;;;;;;;;1.91;91.27;103612.72;5020729;28;1981;-85
2021/03/01 05:14:37;;;;;;;;;;;;;;;1.95;91.28;103603.03;5021684;28;975;-85
2021/03/01 05:17:03;;;;;;;;;;;;;;;1.93;91.32;103608.72;5021979;28;877;-85
2021/03/01 05:19:30;;;;;;;;;;;;;;;1.93;91.51;103610.59;5020915;28;1306;-85
2021/03/01 05:21:56;;;;;;;;;;;;;;;1.85;91.40;103595.31;5021935;28;769;-84
2021/03/01 05:24:22;;;;;;;;;;;;;;;1.92;91.76;103604.31;5021506;28;1068;-85
2021/03/01 05:26:48;;;;;;;;;;;;;;;1.90;91.29;103605.59;5021828;28;872;-85
2021/03/01 05:29:13;;;;;;;;;;;;;;;1.84;91.55;103599.13;5021527;28;1349;-85
2021/03/01 05:31:38;;;;;;;;;;;;;;;1.88;91.20;103603.06;5021280;28;902;-85
2021/03/01 05:34:04;;;;;;;;;;;;;;;1.84;91.44;103607.28;5021725;28;1961;-85
2021/03/01 05:36:29;;;;;;;;;;;;;;;1.79;91.58;103607.94;5020858;28;1048;-84
2021/03/01 05:38:55;;;;;;;;;;;;;;;1.78;91.66;103608.16;5019474;28;1378;-84
2021/03/01 05:41:23;;;;;;;;;;;;;;;1.71;91.84;103607.34;5018912;28;937;-84
2021/03/01 05:43:48;;;;;;;;;;;;;;;1.69;91.92;103602.13;5016919;28;1274;-84
2021/03/01 05:46:15;;;;;;;;;;;;;;;1.71;92.20;103604.63;5001100;28;1317;-84
2021/03/01 05:48:41;;;;;;;;;;;;;;;1.69;92.14;103613.84;5018842;28;1247;-84
2021/03/01 05:51:07;;;;;;;;;;;;;;;1.74;92.03;103612.38;5017483;28;1275;-84
2021/03/01 05:53:38;;;;;;;;;;;;;;;1.77;92.02;103617.41;5018413;28;1886;-84
2021/03/01 05:56:04;;;;;;;;;;;;;;;1.71;91.44;103619.06;5017202;28;873;-84
2021/03/01 05:58:33;;;;;;;;;;;;;;;1.63;91.43;103624.78;5018713;28;1380;-85
2021/03/01 06:01:01;;;;;;;;;;;;;;;1.56;91.37;103622.09;5017199;28;1367;-85
2021/03/01 06:03:34;;;;;;;;;;;;;;;1.49;91.56;103624.81;5017285;28;1036;-84
2021/03/01 06:06:00;;;;;;;;;;;;;;;1.41;91.58;103625.03;5033637;28;980;-84
2021/03/01 06:08:27;;;;;;;;;;;;;;;1.41;91.64;103629.66;5017786;28;1421;-84
2021/03/01 06:11:00;;;;;;;;;;;;;;;1.29;91.85;103629.47;5018371;28;785;-84
2021/03/01 06:13:26;;;;;;;;;;;;;;;1.08;92.12;103630.56;5018863;28;1955;-84
2021/03/01 06:15:56;;;;;;;;;;;;;;;0.98;93.02;103630.97;5019084;28;830;-84
2021/03/01 06:18:23;;;;;;;;;;;;;;;0.89;93.34;103637.69;5033700;28;1388;-84
2021/03/01 06:20:50;;;;;;;;;;;;;;;0.89;93.34;103638.53;5019899;28;846;-84
2021/03/01 06:23:32;;;;;;;;;;;;;;;0.94;93.29;103640.63;5020398;28;798;-84
2021/03/01 06:26:21;;;;;;;;;;;;;;;0.79;92.99;103635.38;5019540;28;1418;-84
2021/03/01 06:28:47;;;;;;;;;;;;;;;0.69;93.03;103640.41;5020751;28;1350;-84
2021/03/01 06:31:48;;;;;;;;;;;;;;;0.78;92.90;103641.03;5026137;28;904;-84
2021/03/01 06:34:24;;;;;;;;;;;;;;;0.75;92.80;103634.16;4998135;28;1314;-73
2021/03/01 06:37:09;;;;;;;;;;;;;;;0.73;92.65;103639.78;5019574;28;870;-73
2021/03/01 06:39:48;;;;;;;;;;;;;;;0.86;92.35;103633.50;5018652;28;1250;-73
2021/03/01 06:42:16;;;;;;;;;;;;;;;0.87;92.18;103639.78;5018978;28;1004;-74
2021/03/01 06:45:07;;;;;;;;;;;;;;;0.70;92.73;103640.19;5018753;28;921;-73
2021/03/01 06:47:54;;;;;;;;;;;;;;;0.50;93.04;103642.91;5018483;28;1239;-73
2021/03/01 06:50:22;;;;;;;;;;;;;;;0.54;93.12;103646.88;5018349;28;903;-73
2021/03/01 06:52:49;;;;;;;;;;;;;;;0.68;93.21;103638.75;5018298;28;1981;-73
2021/03/01 06:55:18;;;;;;;;;;;;;;;0.71;93.39;103644.59;5023450;28;992;-83
2021/03/01 06:57:44;;;;;;;;;;;;;;;0.69;93.20;103648.56;5043356;28;1274;-85
2021/03/01 07:00:10;;;;;;;;;;;;;;;0.77;93.14;103648.38;5028370;28;830;-84
2021/03/01 07:02:37;;;;;;;;;;;;;;;0.82;92.40;103645.84;5033761;28;810;-83
2021/03/01 07:05:03;;;;;;;;;;;;;;;0.91;92.50;103652.75;5025612;28;989;-83
2021/03/01 07:07:36;;;;;;;;;;;;;;;0.90;92.18;103652.97;5023814;28;818;-84
2021/03/01 07:10:04;;;;;;;;;;;;;;;0.96;92.15;103649.41;5022832;28;1353;-84
2021/03/01 07:12:49;;;;;;;;;;;;;;;1.05;91.71;103650.03;5025072;28;1894;-84
2021/03/01 07:15:15;;;;;;;;;;;;;;;1.07;91.55;103659.69;5021392;28;1317;-84
2021/03/01 07:17:43;;;;;;;;;;;;;;;1.10;91.41;103664.69;5022033;28;866;-84
2021/03/01 07:20:14;;;;;;;;;;;;;;;1.13;91.29;103668.88;5022202;28;802;-84
2021/03/01 07:22:43;;;;;;;;;;;;;;;1.12;91.29;103667.19;5023260;28;880;-84
2021/03/01 07:25:13;;;;;;;;;;;;;;;0.99;90.78;103659.88;5022509;28;1004;-83
2021/03/01 07:27:41;;;;;;;;;;;;;;;0.90;90.95;103661.13;5019874;28;1440;-83
2021/03/01 07:30:09;;;;;;;;;;;;;;;1.07;90.38;103662.41;5019745;28;1376;-84
2021/03/01 07:32:37;;;;;;;;;;;;;;;1.11;90.10;103658.19;5019931;28;1890;-84
2021/03/01 07:35:04;;;;;;;;;;;;;;;1.25;89.73;103655.47;5023887;28;1308;-84
2021/03/01 07:37:30;;;;;;;;;;;;;;;1.30;89.77;103658.38;5021191;28;1341;-83
2021/03/01 07:39:55;;;;;;;;;;;;;;;1.07;90.15;103662.41;5022074;28;1282;-83
2021/03/01 07:42:21;;;;;;;;;;;;;;;1.03;90.48;103652.13;5021973;28;1286;-84
2021/03/01 07:44:47;;;;;;;;;;;;;;;0.82;90.52;103658.63;5023183;28;1156;-83
2021/03/01 07:47:13;;;;;;;;;;;;;;;0.88;90.28;103653.19;5023645;28;901;-83
2021/03/01 07:49:49;;;;;;;;;;;;;;;1.04;89.91;103656.50;5024763;28;1299;-84
2021/03/01 07:52:36;;;;;;;;;;;;;;;1.06;90.16;103659.88;5037573;28;1939;-84
2021/03/01 07:55:06;;;;;;;;;;;;;;;1.09;90.23;103659.44;5035477;28;940;-83
2021/03/01 07:57:32;;;;;;;;;;;;;;;1.25;89.65;103659.00;5036867;28;838;-83
2021/03/01 08:00:00;;;;;;;;;;;;;;;1.28;88.82;103660.47;5034418;28;1318;-83
2021/03/01 08:02:30;;;;;;;;;;;;;;;1.26;88.13;103663.44;5038729;28;933;-83
2021/03/01 08:04:57;;;;;;;;;;;;;;;1.32;87.55;103664.44;5038630;28;1424;-84
2021/03/01 08:07:40;;;;;;;;;;;;;;;1.48;87.33;103663.16;5041614;28;938;-84
2021/03/01 08:10:10;;;;;;;;;;;;;;;1.62;87.16;103674.84;5057896;28;1408;-85
2021/03/01 08:12:35;;;;;;;;;;;;;;;1.75;87.10;103666.66;5039332;28;1871;-84
2021/03/01 08:15:07;;;;;;;;;;;;;;;1.83;87.23;103669.09;5033791;28;1040;-82
2021/03/01 08:17:33;;;;;;;;;;;;;;;1.51;87.06;103668.19;5022967;28;892;-84
2021/03/01 08:20:19;;;;;;;;;;;;;;;1.58;86.77;103662.72;5022707;28;1403;-84
2021/03/01 08:23:06;;;;;;;;;;;;;;;1.56;87.53;103667.53;5020363;28;1246;-84
2021/03/01 08:25:59;;;;;;;;;;;;;;;1.63;87.71;103671.91;5021834;28;825;-83
2021/03/01 08:28:25;;;;;;;;;;;;;;;1.93;86.14;103665.94;5017932;28;1290;-84
2021/03/01 08:30:54;;;;;;;;;;;;;;;1.78;85.32;103671.69;5023652;28;853;-83
2021/03/01 08:33:20;;;;;;;;;;;;;;;2.11;84.92;103667.13;5023547;28;1895;-83
2021/03/01 08:35:51;;;;;;;;;;;;;;;2.26;83.86;103671.22;5022408;28;817;-83
2021/03/01 08:38:38;;;;;;;;;;;;;;;2.09;84.08;103670.06;5021693;28;1322;-82
2021/03/01 08:41:04;;;;;;;;;;;;;;;2.34;84.08;103675.59;5022348;28;1520;-82
2021/03/01 08:43:31;;;;;;;;;;;;;;;2.50;83.00;103676.97;5021884;28;791;-82
2021/03/01 08:45:57;;;;;;;;;;;;;;;2.43;83.43;103668.81;5020101;28;813;-83
2021/03/01 08:48:22;;;;;;;;;;;;;;;2.32;83.45;103672.25;5020223;28;1416;-83
2021/03/01 08:50:51;;;;;;;;;;;;;;;2.53;84.02;103668.34;5020668;28;888;-84
2021/03/01 08:53:27;;;;;;;;;;;;;;;2.67;83.44;103666.38;5037520;28;1943;-84
2021/03/01 08:55:55;;;;;;;;;;;;;;;2.40;84.01;103671.97;5019664;28;898;-84
2021/03/01 08:58:22;;;;;;;;;;;;;;;2.63;84.10;103667.88;5020070;28;1278;-83
2021/03/01 09:00:54;;;;;;;;;;;;;;;2.83;82.56;103660.34;5017525;28;1219;-84
2021/03/01 09:03:39;;;;;;;;;;;;;;;3.27;81.66;103659.53;5020697;28;1343;-84
2021/03/01 09:06:30;;;;;;;;;;;;;;;3.05;79.03;103654.50;5020758;28;929;-86
2021/03/01 09:08:56;;;;;;;;;;;;;;;3.13;78.58;103656.09;5020070;28;1310;-84
2021/03/01 09:11:30;;;;;;;;;;;;;;;3.35;79.09;103665.53;5018380;28;917;-83
2021/03/01 09:14:00;;;;;;;;;;;;;;;3.23;78.53;103661.88;5019031;28;1894;-82
2021/03/01 09:16:28;;;;;;;;;;;;;;;3.08;79.94;103664.97;5033509;28;1926;-84
2021/03/01 09:19:03;;;;;;;;;;;;;;;2.96;79.69;103658.59;5041526;28;1290;-83
2021/03/01 09:21:29;;;;;;;;;;;;;;;2.91;80.05;103653.78;5042581;28;842;-82
2021/03/01 09:23:57;;;;;;;;;;;;;;;3.05;80.10;103651.78;5040284;28;814;-84
2021/03/01 09:26:28;;;;;;;;;;;;;;;3.20;79.97;103652.25;5039119;28;1081;-83
2021/03/01 09:28:59;;;;;;;;;;;;;;;3.06;79.74;103655.31;5040714;28;1294;-84
2021/03/01 09:31:24;;;;;;;;;;;;;;;3.48;79.18;103650.06;5038978;28;790;-83
2021/03/01 09:33:50;;;;;;;;;;;;;;;4.01;76.86;103652.16;5037372;28;1878;-84
2021/03/01 09:36:16;;;;;;;;;;;;;;;3.36;78.02;103650.00;5039639;28;869;-83
2021/03/01 09:38:48;;;;;;;;;;;;;;;3.43;78.09;103642.56;5039221;28;1294;-83
2021/03/01 09:41:13;;;;;;;;;;;;;;;4.12;76.83;103645.94;5039600;28;957;-83
2021/03/01 09:43:40;;;;;;;;;;;;;;;4.51;74.75;103635.44;5039622;28;901;-83
2021/03/01 09:46:06;;;;;;;;;;;;;;;4.61;74.93;103643.09;5040594;28;817;-83
2021/03/01 09:48:41;;;;;;;;;;;;;;;4.07;74.81;103648.53;5036131;28;1332;-83
2021/03/01 09:51:07;;;;;;;;;;;;;;;4.50;74.39;103644.75;5037688;28;821;-83
2021/03/01 09:53:33;;;;;;;;;;;;;;;5.33;71.77;103644.81;5038146;28;1886;-83
2021/03/01 09:55:58;;;;;;;;;;;;;;;5.01;70.99;103644.34;5037914;28;1281;-83
2021/03/01 09:58:31;;;;;;;;;;;;;;;5.60;71.46;103638.81;5038208;28;1361;-83
2021/03/01 10:01:08;;;;;;;;;;;;;;;6.70;68.02;103634.06;5038416;28;1331;-84
2021/03/01 10:03:52;;;;;;;;;;;;;;;7.44;64.29;103635.72;5036795;28;1428;-84
2021/03/01 10:06:30;;;;;;;;;;;;;;;11.00;59.68;103623.00;5038343;28;880;-85
2021/03/01 10:09:11;;;;;;;;;;;;;;;10.24;52.95;103628.19;5038318;28;1326;-85
2021/03/01 10:11:37;;;;;;;;;;;;;;;10.34;54.25;103633.75;5038358;28;999;-84
2021/03/01 10:14:10;;;;;;;;;;;;;;;8.34;58.57;103634.53;5039115;28;1905;-83
2021/03/01 10:16:37;;;;;;;;;;;;;;;6.87;63.15;103652.44;5040511;28;1248;-83
2021/03/01 10:19:38;;;;;;;;;;;;;;;6.82;64.35;103633.97;5040697;28;1388;-83
2021/03/01 10:22:03;;;;;;;;;;;;;;;6.77;64.87;103642.13;5028858;28;1354;-83
2021/03/01 10:24:28;;;;;;;;;;;;;;;7.11;64.77;103648.44;5040295;28;1012;-83
2021/03/01 10:26:56;;;;;;;;;;;;;;;7.39;62.72;103640.28;5040319;28;845;-83
2021/03/01 10:29:35;;;;;;;;;;;;;;;7.89;62.43;103636.56;5040150;28;1329;-83
2021/03/01 10:32:03;;;;;;;;;;;;;;;8.05;61.78;103640.31;5041463;28;1871;-84
2021/03/01 10:34:35;;;;;;;;;;;;;;;7.47;62.78;103646.19;5044858;28;1016;-83
2021/03/01 10:37:03;;;;;;;;;;;;;;;6.09;66.13;103649.41;5046732;28;1172;-84
2021/03/01 10:39:39;;;;;;;;;;;;;;;5.90;67.87;103657.81;5042663;28;1321;-84
2021/03/01 10:42:13;;;;;;;;;;;;;;;5.56;69.34;103662.31;5041111;28;809;-84
2021/03/01 10:44:44;;;;;;;;;;;;;;;5.64;69.77;103657.28;5041517;28;755;-84
2021/03/01 10:47:14;;;;;;;;;;;;;;;6.12;68.85;103657.16;5040309;28;1417;-82
2021/03/01 10:49:40;;;;;;;;;;;;;;;5.58;69.04;103654.66;5040964;28;1353;-80
2021/03/01 10:52:07;;;;;;;;;;;;;;;5.97;69.56;103654.94;5040807;28;1893;-80
2021/03/01 10:54:35;;;;;;;;;;;;;;;5.81;69.00;103653.78;5040780;28;826;-80
2021/03/01 10:57:00;;;;;;;;;;;;;;;6.00;68.99;103646.22;5040732;28;1020;-81
2021/03/01 10:59:25;;;;;;;;;;;;;;;6.26;67.39;103652.22;5040355;28;1255;-79
2021/03/01 11:01:51;;;;;;;;;;;;;;;5.71;68.87;103648.94;5041335;28;929;-80
2021/03/01 11:04:18;;;;;;;;;;;;;;;6.03;68.41;103649.31;5041590;28;1046;-80
2021/03/01 11:06:45;;;;;;;;;;;;;;;6.74;67.43;103639.88;5040079;28;870;-80
2021/03/01 11:09:11;;;;;;;;;;;;;;;7.85;64.90;103640.91;5041038;28;1326;-80
2021/03/01 11:11:38;;;;;;;;;;;;;;;8.52;59.98;103638.88;5040770;28;1266;-80
2021/03/01 11:14:04;;;;;;;;;;;;;;;8.88;59.63;103639.19;5041888;28;1898;-81
2021/03/01 11:16:30;;;;;;;;;;;;;;;8.47;59.56;103639.66;5043090;28;829;-81
2021/03/01 11:18:55;;;;;;;;;;;;;;;8.33;60.43;103644.72;5041943;28;1401;-81
2021/03/01 11:21:21;;;;;;;;;;;;;;;8.05;60.78;103643.88;5045535;28;798;-81
2021/03/01 11:23:46;;;;;;;;;;;;;;;8.53;60.99;103638.63;5047013;28;969;-81
2021/03/01 11:26:14;;;;;;;;;;;;;;;7.97;60.16;103640.75;5045666;28;918;-81
2021/03/01 11:28:40;;;;;;;;;;;;;;;8.68;58.15;103629.66;5047126;28;1349;-81
2021/03/01 11:31:06;;;;;;;;;;;;;;;9.06;57.86;103627.72;5045568;28;835;-81
2021/03/01 11:33:31;;;;;;;;;;;;;;;9.48;55.20;103628.78;5045640;28;1883;-80
2021/03/01 11:35:57;;;;;;;;;;;;;;;10.76;53.18;103631.84;5045390;28;955;-81
2021/03/01 11:38:24;;;;;;;;;;;;;;;11.13;51.46;103622.41;5043748;28;1285;-81
2021/03/01 11:40:51;;;;;;;;;;;;;;;12.71;48.95;103616.31;5045765;28;862;-81
2021/03/01 11:43:16;;;;;;;;;;;;;;;15.67;40.10;103603.78;5046315;28;1068;-81
2021/03/01 11:45:42;;;;;;;;;;;;;;;18.91;33.55;103600.22;5045704;28;833;-81
2021/03/01 11:48:10;;;;;;;;;;;;;;;16.95;35.54;103613.00;5042985;28;1373;-82
2021/03/01 11:50:35;;;;;;;;;;;;;;;14.62;40.61;103612.75;5045961;28;853;-81
2021/03/01 11:53:01;;;;;;;;;;;;;;;14.67;41.63;103601.56;5049312;28;1890;-81
2021/03/01 11:55:26;;;;;;;;;;;;;;;14.59;40.15;103608.66;5050066;28;948;-81
2021/03/01 11:57:51;;;;;;;;;;;;;;;13.67;43.72;103604.44;5044050;28;1286;-81
2021/03/01 12:00:18;;;;;;;;;;;;;;;14.72;41.86;103593.13;5044773;28;946;-81
2021/03/01 12:02:43;;;;;;;;;;;;;;;17.80;35.47;103582.84;5042926;28;826;-81
2021/03/01 12:05:09;;;;;;;;;;;;;;;19.00;31.28;103586.19;5043085;28;856;-81
2021/03/01 12:07:35;;;;;;;;;;;;;;;21.22;28.91;103579.66;5043104;28;1257;-82
2021/03/01 12:10:00;;;;;;;;;;;;;;;21.84;27.55;103571.97;5044592;28;1301;-81
2021/03/01 12:12:26;;;;;;;;;;;;;;;22.24;26.37;103573.91;5046583;28;1863;-81
2021/03/01 12:14:51;;;;;;;;;;;;;;;22.29;26.80;103572.88;5045580;28;936;-81
2021/03/01 12:17:16;;;;;;;;;;;;;;;23.12;25.50;103560.94;5044504;28;1132;-82
2021/03/01 12:19:42;;;;;;;;;;;;;;;22.19;26.14;103562.09;5046913;28;1357;-82
2021/03/01 12:22:08;;;;;;;;;;;;;;;19.47;29.58;103572.94;5045978;28;805;-82
2021/03/01 12:24:33;;;;;;;;;;;;;;;20.97;28.19;103560.00;5043900;28;1155;-83
2021/03/01 12:26:58;;;;;;;;;;;;;;;22.48;26.86;103558.91;5041864;28;1935;-83
2021/03/01 12:29:24;;;;;;;;;;;;;;;23.29;26.46;103549.28;5043568;28;1337;-83
2021/03/01 12:31:49;;;;;;;;;;;;;;;22.47;25.50;103550.81;5046410;28;1159;-82
2021/03/01 12:34:15;;;;;;;;;;;;;;;22.43;25.93;103545.09;5045428;28;1953;-82
2021/03/01 12:36:41;;;;;;;;;;;;;;;21.93;26.17;103538.88;5046268;28;1151;-81
2021/03/01 12:39:07;;;;;;;;;;;;;;;23.87;25.05;103528.00;5046420;28;1369;-82
2021/03/01 12:41:32;;;;;;;;;;;;;;;24.24;24.13;103522.66;5047116;28;1120;-82
2021/03/01 12:43:57;;;;;;;;;;;;;;;25.45;22.25;103516.56;5046248;28;794;-82
2021/03/01 12:46:23;;;;;;;;;;;;;;;24.34;22.99;103515.59;5048267;28;841;-82
2021/03/01 12:48:49;;;;;;;;;;;;;;;24.27;23.42;103515.47;5048086;28;1365;-82
2021/03/01 12:51:15;;;;;;;;;;;;;;;24.52;23.04;103507.41;5047935;28;865;-82
2021/03/01 12:53:40;;;;;;;;;;;;;;;24.27;22.85;103512.63;5047069;28;1963;-84
2021/03/01 12:56:06;;;;;;;;;;;;;;;24.29;23.04;103504.59;5045057;28;931;-82
2021/03/01 12:58:31;;;;;;;;;;;;;;;21.65;27.04;103509.94;5045053;28;1279;-81
2021/03/01 13:00:57;;;;;;;;;;;;;;;24.41;23.79;103495.94;5044157;28;1055;-81
2021/03/01 13:03:22;;;;;;;;;;;;;;;24.36;23.15;103494.28;5026136;28;1490;-82
2021/03/01 13:05:50;;;;;;;;;;;;;;;24.56;22.48;103497.84;5045418;28;944;-82
2021/03/01 13:08:17;;;;;;;;;;;;;;;25.32;22.22;103494.19;5045876;28;1275;-83